Laukaa, Finland
Kieli:  Suomi
CurCond
Päivitetty29/01/2020 05:27 
 

Lähistön Lentoasemien Säätiloja:

 

EFJY - Jyvaskyla (mil/C,) Finland
Etäisyys Sääasemalta: PKo 21km
Päivitetty: 29/01/2020 04:50
Heikkoa Lumisadetta, Pilvistä
Heikkoa Lumisadetta, Pilvistä
 Tuulen suunta I
Tuuli: I 9 km/h
Lämpötila: -1°C
Tuulen purevuus: -4°C
Kastepiste: -1°C
Ilmankosteus: 100%
Ilmanpaine: 999 hPa
Yhteenveto: Heikkoa Lumisadetta
Pilvisyys: Pilvistä
Näkyvyys: 9 km
Pilvisyystiedot: Pilvistä 61 m
2020/01/29 02:50 EFJY 290250Z AUTO 10005KT 9000 -SN OVC002 M01/M01 Q0999
EFHA - Halli (fin-Afb), Finland
Etäisyys Sääasemalta: Lo 56km
Päivitetty: 29/01/2020 05:20
Sumua, Ukkospilviä
Sumua, Ukkospilviä
 Tuulen suunta IKa
Tuuli: IKa 17 km/h
Lämpötila: 0°C
Tuulen purevuus: -4°C
Kastepiste: 0°C
Ilmankosteus: 100%
Ilmanpaine: 997 hPa
Yhteenveto: Sumua
Pilvisyys: Ukkospilviä
Näkyvyys: 4 km
Pilvisyystiedot: Pilvistä 30 m
2020/01/29 03:20 EFHA 290320Z AUTO 12009KT 090V150 4000 BR OVC001 //////CB 00/00 Q0997
EFMI - Mikkeli, Finland
Etäisyys Sääasemalta: IKa 105km
Päivitetty: 28/01/2020 21:50
NOT Current
Heikkoa lumisadetta, Pilvistä
Heikkoa lumisadetta, Pilvistä
 Tuulen suunta IKa
Tuuli: IKa 6 km/h
Lämpötila: -1°C
Kastepiste: -1°C
Ilmankosteus: 100%
Ilmanpaine: 1001 hPa
Yhteenveto: Heikkoa lumisadetta
Pilvisyys: Pilvistä
Näkyvyys: 7 km
Pilvisyystiedot: Pilvistä 91 m
2020/01/28 19:50 EFMI 281950Z AUTO 11003KT 7000 -SG OVC003 M01/M01 Q1001
 
EFTP - Tampere/Pirkkala, Finland
Etäisyys Sääasemalta: Lo 135km
Päivitetty: 29/01/2020 05:20
Sumua, Pilvistä
Sumua, Pilvistä
 Tuulen suunta IKa
Tuuli: IKa 17 km/h
Lämpötila: 1°C
Tuulen purevuus: -3°C
Kastepiste: 1°C
Ilmankosteus: 100%
Ilmanpaine: 996 hPa
Yhteenveto: Sumua
Pilvisyys: Pilvistä
Näkyvyys: 4 km
Pilvisyystiedot: Pilvistä 30 m
2020/01/29 03:20 EFTP 290320Z AUTO 12009KT 090V150 4100 BR OVC001 01/01 Q0996
EFKU - Kuopio (mil/Civ), Finland
Etäisyys Sääasemalta: Ko 146km
Päivitetty: 29/01/2020 05:20
Heikkoa Lumisadetta, Pilvistä
Heikkoa Lumisadetta, Pilvistä
 Tuulen suunta I
Tuuli: I 13 km/h
Lämpötila: -5°C
Tuulen purevuus: -10°C
Kastepiste: -6°C
Ilmankosteus: 93%
Ilmanpaine: 1001 hPa
Yhteenveto: Heikkoa Lumisadetta
Pilvisyys: Pilvistä
Näkyvyys: 10 km
Pilvisyystiedot: Pilvistä 244 m
2020/01/29 03:20 EFKU 290320Z AUTO 09007KT 9999 -SN OVC008 M05/M06 Q1001
EFSI - Seinajoki-Ilmajo, Finland
Etäisyys Sääasemalta: LLu 149km
Päivitetty: 29/01/2020 05:20
Pilvistä
Pilvistä
 Tuulen suunta I
Tuuli: I 11 km/h
Lämpötila: 1°C
Tuulen purevuus: -2°C
Kastepiste: 1°C
Ilmankosteus: 100%
Ilmanpaine: 997 hPa
Pilvisyys: Pilvistä
Näkyvyys: 10 km
Pilvisyystiedot: Puolipilvistä 91 m
Pilvistä 488 m
2020/01/29 03:20 EFSI 290320Z AUTO 09006KT 9999 SCT003 OVC016 01/01 Q0997